Terminal Aerodrome Forecast
Issued by NWS Mt. Holly, NJ

Home | Current Version | Previous Version | Text Only | Print | Product List | Glossary On
Versions: 1 2 3 4 5 6 7 8 9 10 11 12 13
429
FTUS41 KPHI 201120
TAFACY
TAF
KACY 201120Z 2012/2112 28005KT P6SM SKC
     FM201500 33008KT P6SM SKC
     FM201800 30009KT P6SM SKC
     FM202200 29005KT P6SM SKC
     FM210100 VRB02KT P6SM SKC=

USA.gov is the U.S. government's official web portal to all federal, state and local government web resources and services.